Time;durP1;ratioP1;P1;durP2;ratioP2;P2;SDS_P1;SDS_P2;PMS_P1;PMS_P2;Temp;Humidity;BMP_temperature;BMP_pressure;BME280_temperature;BME280_humidity;BME280_pressure;Samples;Min_cycle;Max_cycle;Signal;HPM_P1;HPM_P2
2022/06/28 00:00:20;;;;;;;2.72;1.60;;;16.00;99.90;;;;;;4999854;28;20424;-71
2022/06/28 00:02:46;;;;;;;2.83;1.40;;;16.00;99.90;;;;;;5006534;28;20112;-71
2022/06/28 00:05:12;;;;;;;1.60;1.50;;;16.00;99.90;;;;;;5001514;28;20030;-74
2022/06/28 00:07:38;;;;;;;2.80;1.88;;;16.00;99.90;;;;;;5010558;28;20041;-72
2022/06/28 00:10:05;;;;;;;1.60;1.50;;;16.00;99.90;;;;;;5006278;28;20018;-72
2022/06/28 00:12:31;;;;;;;1.40;1.30;;;15.90;99.90;;;;;;5011161;28;20030;-72
2022/06/28 00:17:42;;;;;;;2.08;1.63;;;16.00;99.90;;;;;;5011927;28;20079;-72
2022/06/28 00:20:09;;;;;;;3.17;1.63;;;16.00;99.90;;;;;;5008842;28;20113;-72
2022/06/28 00:22:34;;;;;;;1.83;1.55;;;16.00;99.90;;;;;;5006186;28;20153;-72
2022/06/28 00:25:00;;;;;;;2.25;1.25;;;16.00;99.90;;;;;;5000183;28;20411;-71
2022/06/28 00:27:26;;;;;;;1.55;1.45;;;16.00;99.90;;;;;;4999907;28;20033;-72
2022/06/28 00:29:51;;;;;;;1.98;1.30;;;16.00;99.90;;;;;;4992968;28;20413;-72
2022/06/28 00:32:17;;;;;;;6.13;1.75;;;16.00;99.90;;;;;;5008594;28;20046;-72
2022/06/28 00:34:42;;;;;;;2.70;1.70;;;16.00;99.90;;;;;;5004938;28;20030;-72
2022/06/28 00:37:08;;;;;;;1.60;1.50;;;16.00;99.90;;;;;;4999250;28;20117;-72
2022/06/28 00:39:34;;;;;;;1.80;1.70;;;16.00;99.90;;;;;;5006061;28;20029;-72
2022/06/28 00:42:00;;;;;;;1.45;1.33;;;16.00;99.90;;;;;;5014134;28;20030;-73
2022/06/28 00:44:27;;;;;;;1.63;1.50;;;16.00;99.90;;;;;;5007505;28;20030;-72
2022/06/28 00:46:53;;;;;;;2.58;1.40;;;16.00;99.90;;;;;;5009657;28;20054;-73
2022/06/28 00:49:20;;;;;;;1.50;1.40;;;16.00;99.90;;;;;;5014221;28;20058;-73
2022/06/28 00:51:45;;;;;;;1.70;1.60;;;16.00;99.90;;;;;;5017393;28;20033;-71
2022/06/28 00:54:12;;;;;;;1.98;1.60;;;16.00;99.90;;;;;;5012988;28;20375;-72
2022/06/28 00:56:37;;;;;;;3.42;1.48;;;16.00;99.90;;;;;;4995949;28;20034;-72
2022/06/28 00:59:03;;;;;;;1.92;1.50;;;15.90;99.90;;;;;;4997929;28;20028;-72
2022/06/28 01:01:29;;;;;;;1.50;1.40;;;15.90;99.90;;;;;;5008266;28;20057;-72
2022/06/28 01:03:55;;;;;;;1.80;1.70;;;15.90;99.90;;;;;;4996764;28;20042;-71
2022/06/28 01:06:21;;;;;;;2.38;1.40;;;15.90;99.90;;;;;;5008256;28;20467;-71
2022/06/28 01:08:48;;;;;;;2.22;1.73;;;15.90;99.90;;;;;;5005982;28;20034;-71
2022/06/28 01:11:20;;;;;;;2.97;1.70;;;15.90;99.90;;;;;;4999761;28;20530;-71
2022/06/28 01:14:01;;;;;;;3.85;1.60;;;15.90;99.90;;;;;;4996663;28;20429;-71
2022/06/28 01:16:28;;;;;;;1.80;1.70;;;15.90;99.90;;;;;;5002511;28;20122;-72
2022/06/28 01:18:54;;;;;;;3.53;1.65;;;15.90;99.90;;;;;;4996450;28;20033;-72
2022/06/28 01:21:23;;;;;;;1.58;1.48;;;15.90;99.90;;;;;;5001385;28;20426;-73
2022/06/28 01:23:49;;;;;;;1.65;1.15;;;15.90;99.90;;;;;;5011194;28;20030;-71
2022/06/28 01:26:17;;;;;;;2.58;1.90;;;15.90;99.90;;;;;;4984524;28;20368;-72
2022/06/28 01:28:43;;;;;;;1.23;1.23;;;15.90;99.90;;;;;;5002106;28;20032;-72
2022/06/28 01:31:10;;;;;;;1.58;1.48;;;15.90;99.90;;;;;;5003255;28;20624;-73
2022/06/28 01:33:37;;;;;;;3.03;1.50;;;15.90;99.90;;;;;;5008080;28;20030;-73
2022/06/28 01:36:06;;;;;;;4.07;1.73;;;15.90;99.90;;;;;;4994340;28;20379;-72
2022/06/28 01:38:33;;;;;;;3.22;1.40;;;15.90;99.90;;;;;;5007141;28;20026;-71
2022/06/28 01:40:59;;;;;;;1.50;1.40;;;15.90;99.90;;;;;;4997529;28;20034;-72
2022/06/28 01:43:26;;;;;;;1.40;1.30;;;15.90;99.90;;;;;;5007816;28;20439;-71
2022/06/28 01:45:53;;;;;;;1.40;1.35;;;15.80;99.90;;;;;;5010781;28;20073;-71
2022/06/28 01:48:20;;;;;;;5.43;1.67;;;15.80;99.90;;;;;;5010742;28;20026;-73
2022/06/28 01:50:46;;;;;;;1.40;1.10;;;15.90;99.90;;;;;;5007436;28;20030;-72
2022/06/28 01:53:12;;;;;;;1.85;1.30;;;15.90;99.90;;;;;;5005808;28;20029;-72
2022/06/28 01:55:38;;;;;;;2.15;1.50;;;15.80;99.90;;;;;;5008752;28;20036;-72
2022/06/28 01:58:04;;;;;;;2.08;1.83;;;15.90;99.90;;;;;;5006003;28;20038;-72
2022/06/28 02:00:30;;;;;;;2.45;1.63;;;15.80;99.90;;;;;;4991813;28;20026;-73
2022/06/28 02:02:56;;;;;;;1.33;1.23;;;15.90;99.90;;;;;;4993665;28;20057;-71
2022/06/28 02:05:22;;;;;;;1.48;1.38;;;15.90;99.90;;;;;;5008678;28;20022;-71
2022/06/28 02:07:50;;;;;;;2.20;1.60;;;15.90;99.90;;;;;;5006272;28;20505;-72
2022/06/28 02:10:17;;;;;;;5.28;1.50;;;15.90;99.90;;;;;;4994248;28;20038;-71
2022/06/28 02:12:43;;;;;;;5.20;1.70;;;15.90;99.90;;;;;;5008060;28;20050;-71
2022/06/28 02:15:09;;;;;;;1.75;1.65;;;15.90;99.90;;;;;;4998096;28;20061;-71
2022/06/28 02:17:34;;;;;;;1.80;1.70;;;16.00;99.90;;;;;;4991596;28;20143;-71
2022/06/28 02:20:00;;;;;;;1.60;1.50;;;15.90;99.90;;;;;;4991064;28;20049;-71
2022/06/28 02:22:26;;;;;;;2.10;1.30;;;15.90;99.90;;;;;;5002638;28;20018;-71
2022/06/28 02:24:51;;;;;;;4.50;2.00;;;15.90;99.90;;;;;;5000508;28;20133;-69
2022/06/28 02:27:18;;;;;;;1.75;1.58;;;15.80;99.90;;;;;;4991317;28;20050;-72
2022/06/28 02:29:43;;;;;;;2.10;1.50;;;15.80;99.90;;;;;;5007437;28;20030;-70
2022/06/28 02:32:09;;;;;;;2.45;1.50;;;15.80;99.90;;;;;;5004843;28;20068;-72
2022/06/28 02:40:21;;;;;;;2.40;1.60;;;15.70;99.90;;;;;;5004599;28;20033;-72
2022/06/28 02:42:48;;;;;;;1.92;1.40;;;15.70;99.90;;;;;;5001705;28;20030;-71
2022/06/28 02:45:13;;;;;;;2.35;1.48;;;15.70;99.90;;;;;;5014213;28;20037;-72
2022/06/28 02:47:39;;;;;;;1.65;1.55;;;15.60;99.90;;;;;;5014714;28;20025;-72
2022/06/28 02:50:06;;;;;;;1.80;1.70;;;15.60;99.90;;;;;;5013750;28;20037;-72
2022/06/28 02:52:31;;;;;;;1.98;1.40;;;15.60;99.90;;;;;;5005203;28;20105;-73
2022/06/28 02:54:57;;;;;;;1.80;1.70;;;15.50;99.90;;;;;;4995872;28;20169;-72
2022/06/28 02:57:23;;;;;;;2.83;1.63;;;15.50;99.90;;;;;;5000287;28;20468;-73
2022/06/28 02:59:48;;;;;;;3.40;1.95;;;15.50;99.90;;;;;;5002344;28;20030;-72
2022/06/28 03:02:14;;;;;;;3.05;1.88;;;15.40;99.90;;;;;;5006467;28;20022;-72
2022/06/28 03:04:40;;;;;;;1.85;1.65;;;15.30;99.90;;;;;;4995031;28;20471;-73
2022/06/28 03:07:05;;;;;;;3.88;2.00;;;15.30;99.90;;;;;;4996731;28;20093;-71
2022/06/28 03:09:31;;;;;;;2.67;2.05;;;15.20;99.90;;;;;;5008958;28;20028;-73
2022/06/28 03:11:56;;;;;;;2.97;1.92;;;15.20;99.90;;;;;;4996789;28;20030;-72
2022/06/28 03:14:22;;;;;;;2.30;1.85;;;15.20;99.90;;;;;;5001064;28;20082;-73
2022/06/28 03:16:47;;;;;;;3.47;2.15;;;15.10;99.90;;;;;;4994877;28;20041;-73
2022/06/28 03:19:13;;;;;;;3.33;2.00;;;15.10;99.90;;;;;;5011750;28;20049;-73
2022/06/28 03:21:39;;;;;;;2.10;1.95;;;15.10;99.90;;;;;;4999733;28;20109;-71
2022/06/28 03:24:04;;;;;;;2.40;2.20;;;15.10;99.90;;;;;;5013440;28;20545;-71
2022/06/28 03:26:30;;;;;;;2.53;2.05;;;15.00;99.90;;;;;;5002422;28;20383;-72
2022/06/28 03:28:56;;;;;;;5.43;2.08;;;15.00;99.90;;;;;;5009018;28;20062;-69
2022/06/28 03:31:21;;;;;;;2.28;2.10;;;15.00;99.90;;;;;;5000655;28;20085;-72
2022/06/28 03:33:47;;;;;;;3.92;2.17;;;15.00;99.90;;;;;;4986743;28;20113;-71
2022/06/28 03:36:12;;;;;;;2.17;1.92;;;15.00;99.90;;;;;;4978149;28;20042;-69
2022/06/28 03:38:38;;;;;;;2.30;1.77;;;15.00;99.90;;;;;;4981019;28;20026;-71
2022/06/28 03:41:04;;;;;;;3.50;2.08;;;15.00;99.90;;;;;;4980830;28;20365;-73
2022/06/28 03:43:29;;;;;;;2.72;2.10;;;15.10;99.90;;;;;;4983301;28;20039;-72
2022/06/28 03:45:55;;;;;;;1.92;1.80;;;15.10;99.90;;;;;;4974734;28;20026;-71
2022/06/28 03:48:20;;;;;;;3.42;2.20;;;15.10;99.90;;;;;;4987706;28;20088;-73
2022/06/28 03:50:46;;;;;;;3.55;2.20;;;15.10;99.90;;;;;;4993293;28;20030;-72
2022/06/28 03:53:12;;;;;;;2.28;2.08;;;15.20;99.90;;;;;;4978192;28;20046;-72
2022/06/28 03:55:37;;;;;;;2.42;1.90;;;15.20;99.90;;;;;;4982536;28;20435;-73
2022/06/28 03:58:03;;;;;;;5.30;2.28;;;15.20;99.90;;;;;;4978043;28;20034;-72
2022/06/28 04:00:29;;;;;;;2.92;2.10;;;15.30;99.90;;;;;;4984023;28;20074;-72
2022/06/28 04:02:54;;;;;;;2.22;1.90;;;15.30;99.90;;;;;;4982948;28;20038;-71
2022/06/28 04:05:20;;;;;;;2.17;1.98;;;15.30;99.90;;;;;;4991932;28;20022;-72
2022/06/28 04:07:46;;;;;;;2.13;1.90;;;15.30;99.90;;;;;;4976899;28;20065;-72
2022/06/28 04:10:11;;;;;;;4.78;2.20;;;15.40;99.90;;;;;;4989485;28;20038;-72
2022/06/28 04:12:37;;;;;;;1.90;1.80;;;15.40;99.90;;;;;;4985481;28;20037;-70
2022/06/28 04:15:03;;;;;;;2.25;2.05;;;15.40;99.90;;;;;;4967782;28;20026;-70
2022/06/28 04:17:28;;;;;;;2.88;1.58;;;15.50;99.90;;;;;;4976317;28;20034;-71
2022/06/28 04:19:54;;;;;;;3.08;1.95;;;15.50;99.90;;;;;;4989869;28;20407;-71
2022/06/28 04:22:20;;;;;;;2.53;2.20;;;15.50;99.90;;;;;;4985133;28;20059;-72
2022/06/28 04:24:45;;;;;;;2.85;2.42;;;15.60;99.90;;;;;;4977410;28;20475;-72
2022/06/28 04:27:11;;;;;;;2.97;2.42;;;15.60;99.90;;;;;;4956003;28;20456;-72
2022/06/28 04:29:36;;;;;;;2.47;1.90;;;15.70;99.90;;;;;;4975178;28;20030;-73
2022/06/28 04:32:02;;;;;;;2.45;1.98;;;15.70;99.90;;;;;;4996022;28;20061;-72
2022/06/28 04:34:28;;;;;;;4.60;2.38;;;15.80;99.90;;;;;;5011421;28;20115;-73
2022/06/28 04:36:54;;;;;;;2.67;2.47;;;15.80;99.90;;;;;;5011351;28;20037;-72
2022/06/28 04:39:20;;;;;;;4.82;2.05;;;15.90;99.90;;;;;;5010021;28;20107;-73
2022/06/28 04:41:45;;;;;;;4.97;2.33;;;15.90;99.90;;;;;;5010798;28;20026;-72
2022/06/28 04:44:11;;;;;;;2.83;2.35;;;16.00;99.90;;;;;;4996453;28;20032;-72
2022/06/28 04:46:36;;;;;;;3.00;2.28;;;16.00;99.90;;;;;;5007384;28;20035;-72
2022/06/28 04:49:03;;;;;;;3.83;2.30;;;16.00;99.90;;;;;;4993322;28;20386;-71
2022/06/28 04:51:28;;;;;;;3.17;2.42;;;16.10;99.90;;;;;;4997139;28;20096;-73
2022/06/28 04:53:54;;;;;;;5.20;2.63;;;16.10;99.90;;;;;;5009363;28;20485;-71
2022/06/28 04:56:21;;;;;;;3.45;2.90;;;16.10;99.90;;;;;;5009777;28;20045;-72
2022/06/28 04:58:46;;;;;;;3.55;3.10;;;16.20;99.90;;;;;;5009552;28;20405;-71
2022/06/28 05:01:12;;;;;;;4.68;3.03;;;16.20;99.90;;;;;;4998543;28;20101;-72
2022/06/28 05:03:38;;;;;;;4.82;2.75;;;16.30;99.90;;;;;;4996218;28;20038;-72
2022/06/28 05:06:04;;;;;;;4.80;3.60;;;16.30;99.90;;;;;;4991489;28;20112;-70
2022/06/28 05:08:30;;;;;;;4.05;3.05;;;16.30;99.90;;;;;;5003287;28;20459;-71
2022/06/28 05:10:55;;;;;;;3.35;2.80;;;16.40;99.90;;;;;;5007941;28;20556;-72
2022/06/28 05:13:21;;;;;;;4.97;4.20;;;16.50;99.90;;;;;;5008233;28;20112;-72
2022/06/28 05:15:47;;;;;;;5.28;4.78;;;16.50;99.90;;;;;;4997506;28;20038;-73
2022/06/28 05:18:12;;;;;;;6.95;4.32;;;16.50;99.90;;;;;;4990171;28;20049;-72
2022/06/28 05:20:38;;;;;;;8.63;5.22;;;16.60;99.90;;;;;;4996790;28;20022;-74
2022/06/28 05:23:04;;;;;;;10.35;4.80;;;16.60;99.90;;;;;;5003038;28;20034;-72
2022/06/28 05:25:29;;;;;;;8.85;5.15;;;16.60;99.90;;;;;;4995165;28;20026;-72
2022/06/28 05:27:55;;;;;;;6.38;5.50;;;16.70;99.90;;;;;;4996341;28;20042;-73
2022/06/28 05:30:20;;;;;;;6.00;5.43;;;16.70;99.90;;;;;;4994439;28;20029;-74
2022/06/28 05:32:46;;;;;;;6.80;5.25;;;16.70;99.90;;;;;;5010067;28;20159;-73
2022/06/28 05:35:12;;;;;;;11.18;7.20;;;16.70;99.90;;;;;;5008353;28;20053;-78
2022/06/28 05:37:37;;;;;;;12.98;7.30;;;16.90;99.90;;;;;;4993683;28;20456;-79
2022/06/28 05:40:03;;;;;;;9.30;6.45;;;17.00;99.90;;;;;;4992173;28;20026;-77
2022/06/28 05:42:29;;;;;;;7.72;6.25;;;17.00;99.90;;;;;;4998651;28;20046;-79
2022/06/28 05:44:54;;;;;;;7.10;6.10;;;17.00;99.90;;;;;;4992048;28;20038;-76
2022/06/28 05:47:20;;;;;;;6.65;5.95;;;17.10;99.90;;;;;;5001564;28;20084;-83
2022/06/28 05:49:46;;;;;;;8.30;5.93;;;17.10;99.90;;;;;;4998228;28;20036;-80
2022/06/28 05:52:11;;;;;;;7.30;6.50;;;17.10;99.90;;;;;;4997816;28;20097;-77
2022/06/28 05:54:37;;;;;;;8.82;6.30;;;17.30;99.90;;;;;;4993682;28;20034;-78
2022/06/28 05:57:03;;;;;;;7.43;6.72;;;17.30;99.90;;;;;;4991719;28;20041;-78
2022/06/28 05:59:28;;;;;;;10.75;6.80;;;17.40;99.90;;;;;;5002060;28;20030;-77
2022/06/28 06:01:55;;;;;;;7.75;6.15;;;17.50;99.90;;;;;;5004811;28;20479;-76
2022/06/28 06:04:24;;;;;;;9.63;7.30;;;17.50;99.90;;;;;;4995998;28;20042;-78
2022/06/28 06:06:50;;;;;;;8.07;6.53;;;17.60;99.90;;;;;;4999690;28;20029;-76
2022/06/28 06:09:16;;;;;;;11.85;7.57;;;17.70;99.90;;;;;;4991520;28;20045;-79
2022/06/28 06:11:41;;;;;;;6.32;5.72;;;17.80;99.90;;;;;;4998997;28;20032;-80
2022/06/28 06:14:07;;;;;;;8.32;6.32;;;17.80;99.90;;;;;;5003926;28;20105;-78
2022/06/28 06:16:32;;;;;;;7.15;6.55;;;17.80;99.90;;;;;;5016244;28;20490;-83
2022/06/28 06:18:58;;;;;;;8.65;6.70;;;17.90;99.90;;;;;;5007648;28;20080;-80
2022/06/28 06:21:24;;;;;;;8.60;6.72;;;18.00;99.90;;;;;;5016686;28;20036;-74
2022/06/28 06:23:49;;;;;;;10.88;6.57;;;18.00;99.90;;;;;;4995856;28;20026;-74
2022/06/28 06:26:15;;;;;;;8.75;5.78;;;18.10;99.90;;;;;;5009162;28;20037;-74
2022/06/28 06:28:40;;;;;;;7.55;6.85;;;18.10;99.90;;;;;;5007774;28;20034;-75
2022/06/28 06:31:09;;;;;;;6.65;5.95;;;18.20;99.90;;;;;;5010763;28;20049;-73
2022/06/28 06:33:35;;;;;;;9.95;6.35;;;18.20;99.90;;;;;;4992507;28;20039;-74
2022/06/28 06:36:01;;;;;;;6.53;5.88;;;18.30;99.90;;;;;;4994985;28;20027;-75
2022/06/28 06:38:27;;;;;;;7.03;6.32;;;18.30;99.90;;;;;;4992546;28;20018;-75
2022/06/28 06:40:54;;;;;;;9.10;6.53;;;18.40;99.90;;;;;;4994492;28;20113;-75
2022/06/28 06:43:20;;;;;;;7.20;6.45;;;18.50;99.90;;;;;;4978724;28;20528;-75
2022/06/28 06:45:46;;;;;;;9.60;5.72;;;18.60;99.90;;;;;;4991911;28;20106;-75
2022/06/28 06:48:12;;;;;;;6.97;6.18;;;18.50;99.90;;;;;;4989534;28;20033;-75
2022/06/28 06:50:37;;;;;;;6.80;6.22;;;18.50;99.90;;;;;;4987855;28;20482;-74
2022/06/28 06:53:03;;;;;;;5.95;5.35;;;18.60;99.90;;;;;;4983737;28;20031;-74
2022/06/28 06:55:29;;;;;;;8.13;7.35;;;18.60;99.90;;;;;;4982681;28;20031;-74
2022/06/28 06:57:54;;;;;;;7.85;6.75;;;18.60;99.90;;;;;;4987854;28;20492;-75
2022/06/28 07:00:20;;;;;;;11.02;7.55;;;18.70;99.90;;;;;;4985728;28;20498;-75
2022/06/28 07:02:46;;;;;;;7.93;7.22;;;18.60;99.90;;;;;;4986083;28;20022;-77
2022/06/28 07:05:11;;;;;;;9.35;7.90;;;18.50;99.90;;;;;;4985901;28;20045;-75
2022/06/28 07:07:37;;;;;;;11.57;9.75;;;18.40;99.90;;;;;;5011747;28;20029;-76
2022/06/28 07:10:03;;;;;;;15.07;9.32;;;18.30;99.90;;;;;;4995711;28;20026;-74
2022/06/28 07:12:30;;;;;;;13.35;8.38;;;18.20;99.90;;;;;;4994058;28;20049;-75
2022/06/28 07:14:55;;;;;;;10.02;8.80;;;18.10;99.90;;;;;;4994715;28;20049;-75
2022/06/28 07:17:21;;;;;;;9.98;8.35;;;17.90;99.90;;;;;;4993425;28;20034;-75
2022/06/28 07:19:46;;;;;;;10.10;9.13;;;17.90;99.90;;;;;;5008484;28;20033;-75
2022/06/28 07:22:12;;;;;;;10.55;8.07;;;17.90;99.90;;;;;;4999554;28;20577;-74
2022/06/28 07:24:38;;;;;;;8.85;8.05;;;17.80;99.90;;;;;;4980424;28;20042;-75
2022/06/28 07:27:04;;;;;;;10.73;8.20;;;17.70;99.90;;;;;;4990210;28;20027;-74
2022/06/28 07:29:30;;;;;;;12.57;7.57;;;17.60;99.90;;;;;;4983758;28;20181;-75
2022/06/28 07:31:56;;;;;;;11.00;8.57;;;17.70;99.90;;;;;;4982232;28;20399;-73
2022/06/28 07:34:23;;;;;;;11.18;9.20;;;17.80;99.90;;;;;;4993187;28;20096;-74
2022/06/28 07:36:48;;;;;;;9.85;7.38;;;18.00;99.90;;;;;;5009984;28;20379;-75
2022/06/28 07:39:14;;;;;;;8.63;7.85;;;18.00;99.90;;;;;;4997090;28;20054;-75
2022/06/28 07:41:40;;;;;;;8.90;8.00;;;18.00;99.90;;;;;;5008444;28;20410;-74
2022/06/28 07:44:06;;;;;;;7.45;6.75;;;18.00;99.90;;;;;;5012089;28;20058;-73
2022/06/28 07:46:32;;;;;;;7.72;6.93;;;17.90;99.90;;;;;;5004576;28;20027;-75
2022/06/28 07:48:57;;;;;;;8.55;7.07;;;18.00;99.90;;;;;;5012121;28;20025;-74
2022/06/28 07:54:07;;;;;;;7.30;6.70;;;18.20;99.90;;;;;;4994387;28;20049;-73
2022/06/28 07:56:33;;;;;;;8.73;5.80;;;18.40;99.90;;;;;;5007376;28;20109;-75
2022/06/28 07:58:59;;;;;;;9.05;6.75;;;18.50;99.90;;;;;;5010177;28;20495;-74
2022/06/28 08:01:24;;;;;;;7.95;6.32;;;18.70;99.90;;;;;;5000897;28;20029;-74
2022/06/28 08:03:50;;;;;;;6.78;6.05;;;19.00;99.90;;;;;;5006301;28;20054;-75
2022/06/28 08:06:15;;;;;;;6.85;5.88;;;19.20;99.90;;;;;;4998273;28;20045;-75
2022/06/28 08:08:41;;;;;;;6.90;5.93;;;19.50;99.90;;;;;;5001846;28;20097;-75
2022/06/28 08:11:08;;;;;;;6.38;5.82;;;19.80;99.90;;;;;;5006434;28;20034;-73
2022/06/28 08:13:33;;;;;;;6.05;5.53;;;20.00;99.90;;;;;;5010586;28;20056;-75
2022/06/28 08:15:59;;;;;;;7.45;5.85;;;20.10;99.90;;;;;;5011599;28;20479;-74
2022/06/28 08:18:25;;;;;;;8.48;5.78;;;20.40;99.90;;;;;;5011410;28;20037;-76
2022/06/28 08:20:51;;;;;;;6.97;5.60;;;20.50;99.90;;;;;;4999195;28;20453;-76
2022/06/28 08:23:17;;;;;;;5.53;4.85;;;20.60;99.90;;;;;;5002306;28;20077;-74
2022/06/28 08:25:43;;;;;;;4.60;4.30;;;20.60;99.90;;;;;;5007811;28;20375;-75
2022/06/28 08:28:10;;;;;;;4.82;4.43;;;20.60;99.90;;;;;;4992609;28;20391;-73
2022/06/28 08:30:36;;;;;;;5.95;4.82;;;20.70;99.90;;;;;;5001761;28;20031;-75
2022/06/28 08:33:02;;;;;;;6.03;5.05;;;20.80;99.90;;;;;;5004332;28;20072;-73
2022/06/28 08:35:27;;;;;;;7.93;4.57;;;20.80;99.90;;;;;;4992659;28;20058;-74
2022/06/28 08:37:53;;;;;;;4.60;4.20;;;21.00;99.90;;;;;;4994351;28;20136;-74
2022/06/28 08:40:25;;;;;;;5.30;4.53;;;21.20;99.90;;;;;;4988270;28;20057;-74
2022/06/28 08:42:55;;;;;;;5.15;4.65;;;21.30;99.90;;;;;;5002593;28;20096;-76
2022/06/28 08:45:22;;;;;;;6.45;4.15;;;21.40;99.90;;;;;;5009221;28;20331;-75
2022/06/28 08:47:51;;;;;;;4.78;4.28;;;21.30;99.90;;;;;;5003997;28;20066;-76
2022/06/28 08:50:32;;;;;;;5.85;4.05;;;21.30;99.90;;;;;;4993388;28;20030;-74
2022/06/28 08:53:01;;;;;;;5.20;4.38;;;21.10;99.90;;;;;;5005223;28;20386;-75
2022/06/28 08:55:28;;;;;;;5.30;4.15;;;21.00;99.90;;;;;;5009518;28;20049;-74
2022/06/28 08:57:56;;;;;;;4.80;3.67;;;20.90;99.90;;;;;;5009868;28;20025;-74
2022/06/28 09:00:22;;;;;;;5.10;3.33;;;20.80;99.90;;;;;;5009169;28;20080;-74
2022/06/28 09:02:47;;;;;;;3.83;3.47;;;20.80;99.90;;;;;;5000232;28;20383;-75
2022/06/28 09:05:13;;;;;;;3.80;3.45;;;20.90;99.90;;;;;;5010555;28;20114;-73
2022/06/28 09:07:39;;;;;;;4.95;3.10;;;21.00;99.90;;;;;;5011535;28;20050;-74
2022/06/28 09:10:05;;;;;;;4.15;3.75;;;21.00;99.90;;;;;;5012067;28;20442;-75
2022/06/28 09:12:33;;;;;;;5.38;3.10;;;21.10;99.90;;;;;;4994126;28;20657;-74
2022/06/28 09:14:59;;;;;;;3.00;2.80;;;21.30;99.90;;;;;;5008918;28;20040;-76
2022/06/28 09:17:27;;;;;;;4.68;3.92;;;21.50;99.90;;;;;;5009436;28;20459;-75
2022/06/28 09:19:57;;;;;;;3.28;3.00;;;21.80;99.90;;;;;;4998201;28;20034;-74
2022/06/28 09:22:37;;;;;;;;;;;22.10;99.90;;;;;;5011196;28;20036;-75
2022/06/28 09:25:24;;;;;;;7.57;2.90;;;22.20;99.90;;;;;;5009692;28;19909;-75
2022/06/28 09:27:55;;;;;;;2.75;2.55;;;22.50;99.90;;;;;;5003597;28;20116;-77
2022/06/28 09:30:21;;;;;;;2.55;2.35;;;22.50;99.90;;;;;;4996242;28;20032;-75
2022/06/28 09:32:46;;;;;;;2.70;2.10;;;22.70;99.90;;;;;;5011304;28;20057;-76
2022/06/28 09:35:13;;;;;;;2.47;2.10;;;22.90;99.90;;;;;;5000018;28;20074;-74
2022/06/28 09:37:53;;;;;;;4.13;2.40;;;23.10;99.90;;;;;;4995129;28;20085;-76
2022/06/28 09:40:31;;;;;;;3.75;1.90;;;23.10;99.90;;;;;;5003643;28;20388;-75
2022/06/28 09:43:12;;;;;;;4.88;2.35;;;23.50;99.90;;;;;;4994965;28;20439;-74
2022/06/28 09:45:39;;;;;;;2.78;2.08;;;23.10;99.90;;;;;;5003574;28;20399;-75
2022/06/28 09:48:06;;;;;;;1.63;1.52;;;23.10;99.90;;;;;;5005959;28;20034;-74
2022/06/28 09:50:34;;;;;;;3.63;1.80;;;23.10;99.90;;;;;;5006292;28;20037;-74
2022/06/28 09:53:00;;;;;;;1.98;1.88;;;23.20;99.90;;;;;;5003176;28;20475;-76
2022/06/28 09:55:31;;;;;;;1.58;1.48;;;23.00;99.90;;;;;;4997696;28;20034;-75
2022/06/28 09:57:58;;;;;;;4.18;2.00;;;22.80;99.90;;;;;;4992357;28;20034;-75
2022/06/28 10:00:24;;;;;;;2.50;2.30;;;22.80;99.90;;;;;;5009356;28;20042;-76
2022/06/28 10:02:57;;;;;;;2.75;1.95;;;22.80;99.90;;;;;;5007376;28;20037;-75
2022/06/28 10:05:23;;;;;;;7.82;2.60;;;22.90;99.90;;;;;;5000994;28;20380;-74
2022/06/28 10:07:48;;;;;;;3.47;2.20;;;22.80;99.90;;;;;;4997922;28;20106;-75
2022/06/28 10:10:14;;;;;;;4.45;1.60;;;22.70;99.90;;;;;;4997357;28;20026;-72
2022/06/28 10:15:34;;;;;;;4.85;2.15;;;23.30;99.90;;;;;;5009411;28;20053;-76
2022/06/28 10:18:04;;;;;;;3.58;1.70;;;23.30;99.90;;;;;;5016215;28;20084;-75
2022/06/28 10:20:36;;;;;;;2.10;1.95;;;23.30;99.90;;;;;;5010266;28;20037;-76
2022/06/28 10:23:40;;;;;;;4.82;1.75;;;23.40;99.90;;;;;;5007376;28;20030;-74
2022/06/28 10:26:15;;;;;;;3.70;1.85;;;;;;;;;;4995279;28;20041;-76
2022/06/28 10:28:49;;;;;;;1.90;1.80;;;;;;;;;;5006578;28;20065;-76
2022/06/28 10:31:25;;;;;;;1.67;1.58;;;;;;;;;;5001577;28;20496;-75
2022/06/28 10:33:53;;;;;;;2.25;1.48;;;23.80;99.90;;;;;;4992288;28;20054;-75
2022/06/28 10:36:22;;;;;;;3.17;1.50;;;23.80;99.90;;;;;;5006207;28;20029;-75
2022/06/28 10:39:09;;;;;;;3.90;1.85;;;23.90;99.90;;;;;;5002843;28;20030;-74
2022/06/28 10:41:38;;;;;;;2.22;1.88;;;;;;;;;;5004678;28;20030;-74
2022/06/28 10:44:08;;;;;;;1.45;1.40;;;;;;;;;;4998852;28;20036;-76
2022/06/28 10:46:34;;;;;;;;;;;;;;;;;;5000424;28;20225;-76
2022/06/28 10:49:01;;;;;;;1.80;1.33;;;;;;;;;;4995338;28;20443;-75
2022/06/28 10:51:27;;;;;;;4.20;1.83;;;;;;;;;;4990912;28;20045;-75
2022/06/28 10:54:05;;;;;;;1.60;1.50;;;;;;;;;;4991406;28;20034;-76
2022/06/28 10:56:35;;;;;;;1.77;1.50;;;;;;;;;;5001718;28;20471;-76
2022/06/28 10:59:07;;;;;;;2.40;1.67;;;;;;;;;;4996212;28;20376;-75
2022/06/28 11:01:44;;;;;;;1.50;1.40;;;;;;;;;;4998168;28;20026;-76
2022/06/28 11:04:24;;;;;;;2.85;1.50;;;;;;;;;;5011317;28;20034;-77
2022/06/28 11:07:10;;;;;;;7.18;1.60;;;25.20;99.90;;;;;;4999546;28;20030;-74
2022/06/28 11:09:58;;;;;;;1.85;1.70;;;25.60;99.90;;;;;;4998519;28;20146;-76
2022/06/28 11:12:35;;;;;;;1.83;1.73;;;25.90;99.90;;;;;;5013873;28;20033;-75
2022/06/28 11:15:03;;;;;;;2.17;1.38;;;25.80;99.90;;;;;;5014751;28;20037;-75
2022/06/28 11:17:43;;;;;;;1.80;1.30;;;25.90;99.90;;;;;;5013911;28;20021;-76
2022/06/28 11:20:12;;;;;;;3.75;1.20;;;25.90;99.90;;;;;;5014612;28;20033;-77
2022/06/28 11:22:47;;;;;;;1.63;1.50;;;26.10;99.90;;;;;;5013762;28;20546;-76
2022/06/28 11:25:19;;;;;;;2.15;1.17;;;26.20;99.90;;;;;;5014114;28;20038;-75
2022/06/28 11:27:56;;;;;;;1.90;1.17;;;25.80;99.90;;;;;;5014462;28;20029;-76
2022/06/28 11:30:26;;;;;;;1.20;1.10;;;25.70;99.90;;;;;;5013500;28;20022;-76
2022/06/28 11:32:53;;;;;;;;;;;25.80;99.90;;;;;;5014429;28;20124;-75
2022/06/28 11:35:37;;;;;;;2.45;1.10;;;25.70;99.90;;;;;;5012705;28;19914;-75
2022/06/28 11:38:14;;;;;;;2.13;1.40;;;25.80;99.90;;;;;;5013507;28;20025;-76
2022/06/28 11:40:43;;;;;;;1.95;0.93;;;25.50;99.90;;;;;;4996233;28;20030;-77
2022/06/28 11:43:12;;;;;;;5.43;1.17;;;25.00;99.90;;;;;;5013774;28;20037;-76
2022/06/28 11:45:57;;;;;;;3.00;1.23;;;24.70;99.90;;;;;;5012915;28;20041;-76
2022/06/28 11:48:31;;;;;;;1.60;1.50;;;24.70;99.90;;;;;;4996097;28;20038;-76
2022/06/28 11:50:58;;;;;;;1.52;1.20;;;24.80;99.90;;;;;;4994873;28;20042;-76
2022/06/28 11:53:25;;;;;;;1.00;1.00;;;24.90;99.90;;;;;;5002970;28;20045;-76
2022/06/28 11:55:56;;;;;;;1.75;1.20;;;25.10;99.90;;;;;;5012697;28;20033;-76
2022/06/28 11:58:32;;;;;;;1.63;0.95;;;25.20;99.90;;;;;;5007393;28;20143;-77
2022/06/28 12:01:11;;;;;;;1.20;1.10;;;25.20;99.90;;;;;;4992556;28;20387;-75
2022/06/28 12:03:43;;;;;;;2.07;1.00;;;25.30;99.90;;;;;;4993595;28;20041;-74
2022/06/28 12:06:13;;;;;;;2.58;1.10;;;25.10;99.90;;;;;;4993402;28;20034;-75
2022/06/28 12:08:50;;;;;;;1.25;0.98;;;25.10;99.90;;;;;;4993620;28;20117;-75
2022/06/28 12:11:36;;;;;;;3.33;1.30;;;25.00;99.90;;;;;;4997791;28;20037;-74
2022/06/28 12:14:02;;;;;;;4.38;1.40;;;24.90;99.90;;;;;;4993461;28;20038;-76
2022/06/28 12:16:36;;;;;;;5.20;1.25;;;24.90;99.90;;;;;;4992875;28;20029;-75
2022/06/28 12:19:04;;;;;;;1.85;1.13;;;24.90;99.90;;;;;;4997971;28;20030;-75
2022/06/28 12:21:30;;;;;;;6.10;1.40;;;24.90;99.90;;;;;;4992368;28;20481;-76
2022/06/28 12:23:57;;;;;;;4.55;1.23;;;25.00;99.90;;;;;;4993460;28;20041;-76
2022/06/28 12:26:40;;;;;;;2.45;1.25;;;25.20;99.90;;;;;;5011313;28;20474;-75
2022/06/28 12:29:06;;;;;;;1.15;1.05;;;25.60;99.90;;;;;;5000701;28;20037;-74
2022/06/28 12:31:31;;;;;;;3.60;1.05;;;25.80;99.90;;;;;;5008073;28;20538;-75
2022/06/28 12:33:57;;;;;;;1.15;1.05;;;25.90;99.90;;;;;;5008746;28;20112;-74
2022/06/28 12:36:22;;;;;;;2.03;1.10;;;26.00;99.90;;;;;;4998971;28;20023;-75
2022/06/28 12:38:48;;;;;;;2.45;1.10;;;26.10;99.90;;;;;;5006106;28;20037;-75
2022/06/28 12:41:14;;;;;;;3.83;1.13;;;25.90;99.90;;;;;;5012112;28;20038;-76
2022/06/28 12:43:39;;;;;;;1.50;0.95;;;25.60;99.90;;;;;;5007804;28;20053;-75
2022/06/28 12:46:05;;;;;;;2.03;0.93;;;25.20;99.90;;;;;;4993190;28;20164;-76
2022/06/28 12:48:32;;;;;;;2.58;1.08;;;25.10;99.90;;;;;;5010213;28;20364;-76
2022/06/28 12:50:58;;;;;;;1.45;0.93;;;25.00;99.90;;;;;;4999399;28;20019;-75
2022/06/28 12:53:24;;;;;;;2.33;1.00;;;25.10;99.90;;;;;;4992121;28;20030;-77
2022/06/28 12:55:50;;;;;;;2.83;1.05;;;25.20;99.90;;;;;;5002554;28;20037;-74
2022/06/28 12:58:15;;;;;;;2.45;1.00;;;25.30;99.90;;;;;;4992292;28;20042;-75
2022/06/28 13:00:41;;;;;;;1.77;1.00;;;25.50;99.90;;;;;;4999129;28;20034;-75
2022/06/28 13:03:07;;;;;;;1.77;1.13;;;25.60;99.90;;;;;;4998423;28;20030;-75
2022/06/28 13:05:33;;;;;;;1.80;1.08;;;25.90;99.50;;;;;;4997825;28;20049;-75